sensor_id;sensor_type;location;lat;lon;timestamp;P1;P2;P0
78408;PMS5003;67697;50.750;-3.270;2024-03-08T00:00:24;119;96;
78408;PMS5003;67697;50.750;-3.270;2024-03-08T00:02:50;114;93;
78408;PMS5003;67697;50.750;-3.270;2024-03-08T00:05:15;96;83;
78408;PMS5003;67697;50.750;-3.270;2024-03-08T00:07:41;101;88;
78408;PMS5003;67697;50.750;-3.270;2024-03-08T00:10:06;102;84;
78408;PMS5003;67697;50.750;-3.270;2024-03-08T00:12:31;105;79;
78408;PMS5003;67697;50.750;-3.270;2024-03-08T00:14:56;106;84;
78408;PMS5003;67697;50.750;-3.270;2024-03-08T00:17:22;105;85;
78408;PMS5003;67697;50.750;-3.270;2024-03-08T00:19:48;110;91;
78408;PMS5003;67697;50.750;-3.270;2024-03-08T00:22:13;106;81;
78408;PMS5003;67697;50.750;-3.270;2024-03-08T00:24:38;117;91;
78408;PMS5003;67697;50.750;-3.270;2024-03-08T00:27:04;115;91;
78408;PMS5003;67697;50.750;-3.270;2024-03-08T00:29:29;103;83;
78408;PMS5003;67697;50.750;-3.270;2024-03-08T00:31:54;100;81;
78408;PMS5003;67697;50.750;-3.270;2024-03-08T00:34:20;113;91;
78408;PMS5003;67697;50.750;-3.270;2024-03-08T00:36:45;104;87;
78408;PMS5003;67697;50.750;-3.270;2024-03-08T00:39:11;111;91;
78408;PMS5003;67697;50.750;-3.270;2024-03-08T00:41:36;122;94;
78408;PMS5003;67697;50.750;-3.270;2024-03-08T00:44:01;126;99;
78408;PMS5003;67697;50.750;-3.270;2024-03-08T00:46:27;116;98;
78408;PMS5003;67697;50.750;-3.270;2024-03-08T00:48:53;108;92;
78408;PMS5003;67697;50.750;-3.270;2024-03-08T00:51:18;120;98;
78408;PMS5003;67697;50.750;-3.270;2024-03-08T00:53:43;106;87;
78408;PMS5003;67697;50.750;-3.270;2024-03-08T00:56:09;118;90;
78408;PMS5003;67697;50.750;-3.270;2024-03-08T00:58:36;119;101;
78408;PMS5003;67697;50.750;-3.270;2024-03-08T01:01:01;115;98;
78408;PMS5003;67697;50.750;-3.270;2024-03-08T01:03:26;111;90;
78408;PMS5003;67697;50.750;-3.270;2024-03-08T01:05:52;111;90;
78408;PMS5003;67697;50.750;-3.270;2024-03-08T01:08:17;115;93;
78408;PMS5003;67697;50.750;-3.270;2024-03-08T01:10:43;102;85;
78408;PMS5003;67697;50.750;-3.270;2024-03-08T01:13:08;124;101;
78408;PMS5003;67697;50.750;-3.270;2024-03-08T01:15:34;106;86;
78408;PMS5003;67697;50.750;-3.270;2024-03-08T01:17:59;118;93;
78408;PMS5003;67697;50.750;-3.270;2024-03-08T01:20:24;100;82;
78408;PMS5003;67697;50.750;-3.270;2024-03-08T01:22:50;127;106;
78408;PMS5003;67697;50.750;-3.270;2024-03-08T01:25:16;115;98;
78408;PMS5003;67697;50.750;-3.270;2024-03-08T01:27:41;113;92;
78408;PMS5003;67697;50.750;-3.270;2024-03-08T01:30:07;110;92;
78408;PMS5003;67697;50.750;-3.270;2024-03-08T01:32:32;115;94;
78408;PMS5003;67697;50.750;-3.270;2024-03-08T01:34:58;111;81;
78408;PMS5003;67697;50.750;-3.270;2024-03-08T01:37:23;120;95;
78408;PMS5003;67697;50.750;-3.270;2024-03-08T01:39:48;113;89;
78408;PMS5003;67697;50.750;-3.270;2024-03-08T01:42:13;99;86;
78408;PMS5003;67697;50.750;-3.270;2024-03-08T01:44:39;107;92;
78408;PMS5003;67697;50.750;-3.270;2024-03-08T01:47:05;128;93;
78408;PMS5003;67697;50.750;-3.270;2024-03-08T01:49:30;109;87;
78408;PMS5003;67697;50.750;-3.270;2024-03-08T01:51:55;123;98;
78408;PMS5003;67697;50.750;-3.270;2024-03-08T01:54:20;99;85;
78408;PMS5003;67697;50.750;-3.270;2024-03-08T01:56:46;118;92;
78408;PMS5003;67697;50.750;-3.270;2024-03-08T01:59:12;121;89;
78408;PMS5003;67697;50.750;-3.270;2024-03-08T02:01:37;115;93;
78408;PMS5003;67697;50.750;-3.270;2024-03-08T02:04:02;107;93;
78408;PMS5003;67697;50.750;-3.270;2024-03-08T02:06:28;117;95;
78408;PMS5003;67697;50.750;-3.270;2024-03-08T02:08:53;108;88;
78408;PMS5003;67697;50.750;-3.270;2024-03-08T02:11:18;108;90;
78408;PMS5003;67697;50.750;-3.270;2024-03-08T02:13:44;113;96;
78408;PMS5003;67697;50.750;-3.270;2024-03-08T02:16:10;115;88;
78408;PMS5003;67697;50.750;-3.270;2024-03-08T02:18:35;113;85;
78408;PMS5003;67697;50.750;-3.270;2024-03-08T02:21:01;107;94;
78408;PMS5003;67697;50.750;-3.270;2024-03-08T02:23:26;136;99;
78408;PMS5003;67697;50.750;-3.270;2024-03-08T02:25:51;123;102;
78408;PMS5003;67697;50.750;-3.270;2024-03-08T02:28:17;129;106;
78408;PMS5003;67697;50.750;-3.270;2024-03-08T02:30:43;117;97;
78408;PMS5003;67697;50.750;-3.270;2024-03-08T02:33:08;126;100;
78408;PMS5003;67697;50.750;-3.270;2024-03-08T02:35:33;112;93;
78408;PMS5003;67697;50.750;-3.270;2024-03-08T02:37:59;106;84;
78408;PMS5003;67697;50.750;-3.270;2024-03-08T02:40:24;111;94;
78408;PMS5003;67697;50.750;-3.270;2024-03-08T02:42:50;117;99;
78408;PMS5003;67697;50.750;-3.270;2024-03-08T02:45:15;118;106;
78408;PMS5003;67697;50.750;-3.270;2024-03-08T02:47:42;119;94;
78408;PMS5003;67697;50.750;-3.270;2024-03-08T02:50:06;115;91;
78408;PMS5003;67697;50.750;-3.270;2024-03-08T02:52:32;117;96;
78408;PMS5003;67697;50.750;-3.270;2024-03-08T02:54:57;111;101;
78408;PMS5003;67697;50.750;-3.270;2024-03-08T02:57:23;115;97;
78408;PMS5003;67697;50.750;-3.270;2024-03-08T02:59:48;108;91;
78408;PMS5003;67697;50.750;-3.270;2024-03-08T03:02:13;113;95;
78408;PMS5003;67697;50.750;-3.270;2024-03-08T03:04:40;122;103;
78408;PMS5003;67697;50.750;-3.270;2024-03-08T03:07:04;116;93;
78408;PMS5003;67697;50.750;-3.270;2024-03-08T03:09:30;122;95;
78408;PMS5003;67697;50.750;-3.270;2024-03-08T03:11:56;122;91;
78408;PMS5003;67697;50.750;-3.270;2024-03-08T03:14:21;106;85;
78408;PMS5003;67697;50.750;-3.270;2024-03-08T03:16:47;117;98;
78408;PMS5003;67697;50.750;-3.270;2024-03-08T03:19:12;126;101;
78408;PMS5003;67697;50.750;-3.270;2024-03-08T03:21:37;100;84;
78408;PMS5003;67697;50.750;-3.270;2024-03-08T03:24:02;103;88;
78408;PMS5003;67697;50.750;-3.270;2024-03-08T03:26:28;116;95;
78408;PMS5003;67697;50.750;-3.270;2024-03-08T03:28:53;114;90;
78408;PMS5003;67697;50.750;-3.270;2024-03-08T03:31:18;115;93;
78408;PMS5003;67697;50.750;-3.270;2024-03-08T03:33:44;115;94;
78408;PMS5003;67697;50.750;-3.270;2024-03-08T03:36:10;133;102;
78408;PMS5003;67697;50.750;-3.270;2024-03-08T03:38:35;122;98;
78408;PMS5003;67697;50.750;-3.270;2024-03-08T03:41:01;100;85;
78408;PMS5003;67697;50.750;-3.270;2024-03-08T03:43:26;119;94;
78408;PMS5003;67697;50.750;-3.270;2024-03-08T03:45:52;112;95;
78408;PMS5003;67697;50.750;-3.270;2024-03-08T03:48:18;111;93;
78408;PMS5003;67697;50.750;-3.270;2024-03-08T03:50:43;115;98;
78408;PMS5003;67697;50.750;-3.270;2024-03-08T03:53:09;117;95;
78408;PMS5003;67697;50.750;-3.270;2024-03-08T03:55:34;107;94;
78408;PMS5003;67697;50.750;-3.270;2024-03-08T03:58:00;118;92;
78408;PMS5003;67697;50.750;-3.270;2024-03-08T04:00:26;113;92;
78408;PMS5003;67697;50.750;-3.270;2024-03-08T04:02:51;111;98;
78408;PMS5003;67697;50.750;-3.270;2024-03-08T04:05:17;114;89;
78408;PMS5003;67697;50.750;-3.270;2024-03-08T04:07:43;113;88;
78408;PMS5003;67697;50.750;-3.270;2024-03-08T04:10:09;126;91;
78408;PMS5003;67697;50.750;-3.270;2024-03-08T04:12:33;125;103;
78408;PMS5003;67697;50.750;-3.270;2024-03-08T04:14:58;125;98;
78408;PMS5003;67697;50.750;-3.270;2024-03-08T04:17:23;109;94;
78408;PMS5003;67697;50.750;-3.270;2024-03-08T04:19:49;107;85;
78408;PMS5003;67697;50.750;-3.270;2024-03-08T04:22:14;112;96;
78408;PMS5003;67697;50.750;-3.270;2024-03-08T04:24:45;117;96;
78408;PMS5003;67697;50.750;-3.270;2024-03-08T04:27:05;121;94;
78408;PMS5003;67697;50.750;-3.270;2024-03-08T04:29:30;104;87;
78408;PMS5003;67697;50.750;-3.270;2024-03-08T04:31:56;119;87;
78408;PMS5003;67697;50.750;-3.270;2024-03-08T04:34:21;134;98;
78408;PMS5003;67697;50.750;-3.270;2024-03-08T04:36:47;114;86;
78408;PMS5003;67697;50.750;-3.270;2024-03-08T04:39:12;124;94;
78408;PMS5003;67697;50.750;-3.270;2024-03-08T04:41:38;118;92;
78408;PMS5003;67697;50.750;-3.270;2024-03-08T04:44:03;118;94;
78408;PMS5003;67697;50.750;-3.270;2024-03-08T04:46:29;99;85;
78408;PMS5003;67697;50.750;-3.270;2024-03-08T04:48:55;100;85;
78408;PMS5003;67697;50.750;-3.270;2024-03-08T04:51:19;106;95;
78408;PMS5003;67697;50.750;-3.270;2024-03-08T04:53:46;118;98;
78408;PMS5003;67697;50.750;-3.270;2024-03-08T04:56:10;120;89;
78408;PMS5003;67697;50.750;-3.270;2024-03-08T04:58:36;135;94;
78408;PMS5003;67697;50.750;-3.270;2024-03-08T05:01:01;124;100;
78408;PMS5003;67697;50.750;-3.270;2024-03-08T05:03:26;123;100;
78408;PMS5003;67697;50.750;-3.270;2024-03-08T05:05:51;120;100;
78408;PMS5003;67697;50.750;-3.270;2024-03-08T05:08:17;115;91;
78408;PMS5003;67697;50.750;-3.270;2024-03-08T05:10:43;111;94;
78408;PMS5003;67697;50.750;-3.270;2024-03-08T05:13:08;124;94;
78408;PMS5003;67697;50.750;-3.270;2024-03-08T05:15:33;134;106;
78408;PMS5003;67697;50.750;-3.270;2024-03-08T05:17:59;114;96;
78408;PMS5003;67697;50.750;-3.270;2024-03-08T05:20:24;121;94;
78408;PMS5003;67697;50.750;-3.270;2024-03-08T05:22:50;110;97;
78408;PMS5003;67697;50.750;-3.270;2024-03-08T05:25:15;111;91;
78408;PMS5003;67697;50.750;-3.270;2024-03-08T05:27:41;113;90;
78408;PMS5003;67697;50.750;-3.270;2024-03-08T05:30:07;111;93;
78408;PMS5003;67697;50.750;-3.270;2024-03-08T05:32:32;122;98;
78408;PMS5003;67697;50.750;-3.270;2024-03-08T05:34:58;133;103;
78408;PMS5003;67697;50.750;-3.270;2024-03-08T05:37:23;118;89;
78408;PMS5003;67697;50.750;-3.270;2024-03-08T05:39:49;114;95;
78408;PMS5003;67697;50.750;-3.270;2024-03-08T05:42:15;107;89;
78408;PMS5003;67697;50.750;-3.270;2024-03-08T05:44:40;102;84;
78408;PMS5003;67697;50.750;-3.270;2024-03-08T05:47:06;108;89;
78408;PMS5003;67697;50.750;-3.270;2024-03-08T05:49:32;115;83;
78408;PMS5003;67697;50.750;-3.270;2024-03-08T05:51:57;108;87;
78408;PMS5003;67697;50.750;-3.270;2024-03-08T05:54:22;108;88;
78408;PMS5003;67697;50.750;-3.270;2024-03-08T05:56:47;104;88;
78408;PMS5003;67697;50.750;-3.270;2024-03-08T05:59:13;115;95;
78408;PMS5003;67697;50.750;-3.270;2024-03-08T06:01:39;108;91;
78408;PMS5003;67697;50.750;-3.270;2024-03-08T06:04:05;120;88;
78408;PMS5003;67697;50.750;-3.270;2024-03-08T06:06:30;114;96;
78408;PMS5003;67697;50.750;-3.270;2024-03-08T06:08:55;114;91;
78408;PMS5003;67697;50.750;-3.270;2024-03-08T06:11:20;112;83;
78408;PMS5003;67697;50.750;-3.270;2024-03-08T06:13:46;126;99;
78408;PMS5003;67697;50.750;-3.270;2024-03-08T06:16:12;107;84;
78408;PMS5003;67697;50.750;-3.270;2024-03-08T06:18:37;116;94;
78408;PMS5003;67697;50.750;-3.270;2024-03-08T06:21:02;102;89;
78408;PMS5003;67697;50.750;-3.270;2024-03-08T06:23:27;107;87;
78408;PMS5003;67697;50.750;-3.270;2024-03-08T06:25:53;122;98;
78408;PMS5003;67697;50.750;-3.270;2024-03-08T06:28:18;94;79;
78408;PMS5003;67697;50.750;-3.270;2024-03-08T06:30:44;110;94;
78408;PMS5003;67697;50.750;-3.270;2024-03-08T06:33:09;113;94;
78408;PMS5003;67697;50.750;-3.270;2024-03-08T06:35:34;103;83;
78408;PMS5003;67697;50.750;-3.270;2024-03-08T06:38:01;110;87;
78408;PMS5003;67697;50.750;-3.270;2024-03-08T06:40:26;112;86;
78408;PMS5003;67697;50.750;-3.270;2024-03-08T06:42:51;103;88;
78408;PMS5003;67697;50.750;-3.270;2024-03-08T06:45:17;104;84;
78408;PMS5003;67697;50.750;-3.270;2024-03-08T06:47:42;105;84;
78408;PMS5003;67697;50.750;-3.270;2024-03-08T06:50:09;106;86;
78408;PMS5003;67697;50.750;-3.270;2024-03-08T06:52:33;117;88;
78408;PMS5003;67697;50.750;-3.270;2024-03-08T06:55:04;113;89;
78408;PMS5003;67697;50.750;-3.270;2024-03-08T06:57:24;105;86;
78408;PMS5003;67697;50.750;-3.270;2024-03-08T06:59:49;95;86;
78408;PMS5003;67697;50.750;-3.270;2024-03-08T07:02:15;114;88;
78408;PMS5003;67697;50.750;-3.270;2024-03-08T07:04:40;109;83;
78408;PMS5003;67697;50.750;-3.270;2024-03-08T07:07:06;113;87;
78408;PMS5003;67697;50.750;-3.270;2024-03-08T07:09:31;109;88;
78408;PMS5003;67697;50.750;-3.270;2024-03-08T07:12:02;105;91;
78408;PMS5003;67697;50.750;-3.270;2024-03-08T07:14:23;108;93;
78408;PMS5003;67697;50.750;-3.270;2024-03-08T07:16:48;107;91;
78408;PMS5003;67697;50.750;-3.270;2024-03-08T07:19:13;110;92;
78408;PMS5003;67697;50.750;-3.270;2024-03-08T07:21:39;101;86;
78408;PMS5003;67697;50.750;-3.270;2024-03-08T07:24:05;103;82;
78408;PMS5003;67697;50.750;-3.270;2024-03-08T07:26:30;128;91;
78408;PMS5003;67697;50.750;-3.270;2024-03-08T07:28:56;97;79;
78408;PMS5003;67697;50.750;-3.270;2024-03-08T07:31:21;107;87;
78408;PMS5003;67697;50.750;-3.270;2024-03-08T07:33:47;108;84;
78408;PMS5003;67697;50.750;-3.270;2024-03-08T07:36:13;101;83;
78408;PMS5003;67697;50.750;-3.270;2024-03-08T07:38:38;114;87;
78408;PMS5003;67697;50.750;-3.270;2024-03-08T07:41:03;109;84;
78408;PMS5003;67697;50.750;-3.270;2024-03-08T07:43:33;110;94;
78408;PMS5003;67697;50.750;-3.270;2024-03-08T07:45:54;103;87;
78408;PMS5003;67697;50.750;-3.270;2024-03-08T07:48:20;115;83;
78408;PMS5003;67697;50.750;-3.270;2024-03-08T07:50:45;114;85;
78408;PMS5003;67697;50.750;-3.270;2024-03-08T07:53:12;101;80;
78408;PMS5003;67697;50.750;-3.270;2024-03-08T07:55:37;95;81;
78408;PMS5003;67697;50.750;-3.270;2024-03-08T07:58:02;101;81;
78408;PMS5003;67697;50.750;-3.270;2024-03-08T08:00:28;102;85;
78408;PMS5003;67697;50.750;-3.270;2024-03-08T08:02:52;90;77;
78408;PMS5003;67697;50.750;-3.270;2024-03-08T08:05:18;102;87;
78408;PMS5003;67697;50.750;-3.270;2024-03-08T08:07:44;108;85;
78408;PMS5003;67697;50.750;-3.270;2024-03-08T08:10:08;99;81;
78408;PMS5003;67697;50.750;-3.270;2024-03-08T08:12:34;94;77;
78408;PMS5003;67697;50.750;-3.270;2024-03-08T08:14:59;103;81;
78408;PMS5003;67697;50.750;-3.270;2024-03-08T08:17:26;97;85;
78408;PMS5003;67697;50.750;-3.270;2024-03-08T08:19:51;88;72;
78408;PMS5003;67697;50.750;-3.270;2024-03-08T08:22:16;100;77;
78408;PMS5003;67697;50.750;-3.270;2024-03-08T08:24:41;98;83;
78408;PMS5003;67697;50.750;-3.270;2024-03-08T08:27:06;100;81;
78408;PMS5003;67697;50.750;-3.270;2024-03-08T08:29:32;90;76;
78408;PMS5003;67697;50.750;-3.270;2024-03-08T08:31:57;116;85;
78408;PMS5003;67697;50.750;-3.270;2024-03-08T08:34:22;86;72;
78408;PMS5003;67697;50.750;-3.270;2024-03-08T08:36:47;95;76;
78408;PMS5003;67697;50.750;-3.270;2024-03-08T08:39:13;97;77;
78408;PMS5003;67697;50.750;-3.270;2024-03-08T08:41:39;82;74;
78408;PMS5003;67697;50.750;-3.270;2024-03-08T08:44:04;100;79;
78408;PMS5003;67697;50.750;-3.270;2024-03-08T08:46:30;96;75;
78408;PMS5003;67697;50.750;-3.270;2024-03-08T08:48:54;101;73;
78408;PMS5003;67697;50.750;-3.270;2024-03-08T08:51:20;80;64;
78408;PMS5003;67697;50.750;-3.270;2024-03-08T08:53:46;94;76;
78408;PMS5003;67697;50.750;-3.270;2024-03-08T08:56:11;82;69;
78408;PMS5003;67697;50.750;-3.270;2024-03-08T08:58:36;87;75;
78408;PMS5003;67697;50.750;-3.270;2024-03-08T09:01:02;80;67;
78408;PMS5003;67697;50.750;-3.270;2024-03-08T09:03:27;86;65;
78408;PMS5003;67697;50.750;-3.270;2024-03-08T09:05:53;80;65;
78408;PMS5003;67697;50.750;-3.270;2024-03-08T09:08:18;74;61;
78408;PMS5003;67697;50.750;-3.270;2024-03-08T09:10:44;88;69;
78408;PMS5003;67697;50.750;-3.270;2024-03-08T09:13:09;81;67;
78408;PMS5003;67697;50.750;-3.270;2024-03-08T09:15:35;85;69;
78408;PMS5003;67697;50.750;-3.270;2024-03-08T09:18:00;78;62;
78408;PMS5003;67697;50.750;-3.270;2024-03-08T09:20:26;83;72;
78408;PMS5003;67697;50.750;-3.270;2024-03-08T09:22:51;73;64;
78408;PMS5003;67697;50.750;-3.270;2024-03-08T09:25:16;80;69;
78408;PMS5003;67697;50.750;-3.270;2024-03-08T09:27:41;80;66;
78408;PMS5003;67697;50.750;-3.270;2024-03-08T09:30:08;72;62;
78408;PMS5003;67697;50.750;-3.270;2024-03-08T09:32:31;79;63;
78408;PMS5003;67697;50.750;-3.270;2024-03-08T09:34:57;87;72;
78408;PMS5003;67697;50.750;-3.270;2024-03-08T09:37:23;80;65;
78408;PMS5003;67697;50.750;-3.270;2024-03-08T09:39:48;75;66;
78408;PMS5003;67697;50.750;-3.270;2024-03-08T09:42:15;75;66;
78408;PMS5003;67697;50.750;-3.270;2024-03-08T09:44:39;80;71;
78408;PMS5003;67697;50.750;-3.270;2024-03-08T09:47:05;71;59;
78408;PMS5003;67697;50.750;-3.270;2024-03-08T09:49:30;77;65;
78408;PMS5003;67697;50.750;-3.270;2024-03-08T09:51:56;64;55;
78408;PMS5003;67697;50.750;-3.270;2024-03-08T09:54:21;73;62;
78408;PMS5003;67697;50.750;-3.270;2024-03-08T09:56:46;68;62;
78408;PMS5003;67697;50.750;-3.270;2024-03-08T09:59:17;67;62;
78408;PMS5003;67697;50.750;-3.270;2024-03-08T10:01:38;73;62;
78408;PMS5003;67697;50.750;-3.270;2024-03-08T10:04:03;80;66;
78408;PMS5003;67697;50.750;-3.270;2024-03-08T10:06:28;79;67;
78408;PMS5003;67697;50.750;-3.270;2024-03-08T10:08:59;75;65;
78408;PMS5003;67697;50.750;-3.270;2024-03-08T10:11:19;71;58;
78408;PMS5003;67697;50.750;-3.270;2024-03-08T10:13:45;64;58;
78408;PMS5003;67697;50.750;-3.270;2024-03-08T10:16:10;72;63;
78408;PMS5003;67697;50.750;-3.270;2024-03-08T10:18:40;75;66;
78408;PMS5003;67697;50.750;-3.270;2024-03-08T10:21:02;75;61;
78408;PMS5003;67697;50.750;-3.270;2024-03-08T10:23:26;69;63;
78408;PMS5003;67697;50.750;-3.270;2024-03-08T10:25:51;74;61;
78408;PMS5003;67697;50.750;-3.270;2024-03-08T10:28:16;79;65;
78408;PMS5003;67697;50.750;-3.270;2024-03-08T10:30:46;84;64;
78408;PMS5003;67697;50.750;-3.270;2024-03-08T10:33:07;67;57;
78408;PMS5003;67697;50.750;-3.270;2024-03-08T10:35:33;68;60;
78408;PMS5003;67697;50.750;-3.270;2024-03-08T10:37:58;74;63;
78408;PMS5003;67697;50.750;-3.270;2024-03-08T10:40:24;72;66;
78408;PMS5003;67697;50.750;-3.270;2024-03-08T10:42:51;76;64;
78408;PMS5003;67697;50.750;-3.270;2024-03-08T10:45:15;65;54;
78408;PMS5003;67697;50.750;-3.270;2024-03-08T10:47:41;76;61;
78408;PMS5003;67697;50.750;-3.270;2024-03-08T10:50:08;74;59;
78408;PMS5003;67697;50.750;-3.270;2024-03-08T10:52:31;73;59;
78408;PMS5003;67697;50.750;-3.270;2024-03-08T10:54:56;72;65;
78408;PMS5003;67697;50.750;-3.270;2024-03-08T10:57:22;64;59;
78408;PMS5003;67697;50.750;-3.270;2024-03-08T10:59:52;79;63;
78408;PMS5003;67697;50.750;-3.270;2024-03-08T11:02:13;65;54;
78408;PMS5003;67697;50.750;-3.270;2024-03-08T11:04:38;68;54;
78408;PMS5003;67697;50.750;-3.270;2024-03-08T11:07:04;67;62;
78408;PMS5003;67697;50.750;-3.270;2024-03-08T11:09:30;81;66;
78408;PMS5003;67697;50.750;-3.270;2024-03-08T11:16:47;70;57;
78408;PMS5003;67697;50.750;-3.270;2024-03-08T11:21:38;82;72;
78408;PMS5003;67697;50.750;-3.270;2024-03-08T11:24:07;63;57;
78408;PMS5003;67697;50.750;-3.270;2024-03-08T11:26:29;66;58;
78408;PMS5003;67697;50.750;-3.270;2024-03-08T11:28:54;62;56;
78408;PMS5003;67697;50.750;-3.270;2024-03-08T11:31:23;63;59;
78408;PMS5003;67697;50.750;-3.270;2024-03-08T11:33:44;66;60;
78408;PMS5003;67697;50.750;-3.270;2024-03-08T11:36:10;61;57;
78408;PMS5003;67697;50.750;-3.270;2024-03-08T11:38:36;86;74;
78408;PMS5003;67697;50.750;-3.270;2024-03-08T11:41:05;72;63;
78408;PMS5003;67697;50.750;-3.270;2024-03-08T11:43:26;66;54;
78408;PMS5003;67697;50.750;-3.270;2024-03-08T11:45:51;68;51;
78408;PMS5003;67697;50.750;-3.270;2024-03-08T11:48:17;54;49;
78408;PMS5003;67697;50.750;-3.270;2024-03-08T11:50:42;65;63;
78408;PMS5003;67697;50.750;-3.270;2024-03-08T11:53:08;71;63;
78408;PMS5003;67697;50.750;-3.270;2024-03-08T11:55:33;68;56;
78408;PMS5003;67697;50.750;-3.270;2024-03-08T11:58:03;66;56;
78408;PMS5003;67697;50.750;-3.270;2024-03-08T12:00:23;71;62;
78408;PMS5003;67697;50.750;-3.270;2024-03-08T12:05:14;66;56;
78408;PMS5003;67697;50.750;-3.270;2024-03-08T12:07:40;69;63;
78408;PMS5003;67697;50.750;-3.270;2024-03-08T12:10:16;64;56;
78408;PMS5003;67697;50.750;-3.270;2024-03-08T12:12:32;57;52;
78408;PMS5003;67697;50.750;-3.270;2024-03-08T12:14:56;65;56;
78408;PMS5003;67697;50.750;-3.270;2024-03-08T12:17:27;59;54;
78408;PMS5003;67697;50.750;-3.270;2024-03-08T12:19:47;58;49;
78408;PMS5003;67697;50.750;-3.270;2024-03-08T12:22:14;58;46;
78408;PMS5003;67697;50.750;-3.270;2024-03-08T12:24:37;62;56;
78408;PMS5003;67697;50.750;-3.270;2024-03-08T12:29:28;56;50;
78408;PMS5003;67697;50.750;-3.270;2024-03-08T12:31:55;55;49;
78408;PMS5003;67697;50.750;-3.270;2024-03-08T12:34:19;62;53;
78408;PMS5003;67697;50.750;-3.270;2024-03-08T12:36:46;64;50;
78408;PMS5003;67697;50.750;-3.270;2024-03-08T12:39:11;60;51;
78408;PMS5003;67697;50.750;-3.270;2024-03-08T12:41:39;58;49;
78408;PMS5003;67697;50.750;-3.270;2024-03-08T12:44:02;58;53;
78408;PMS5003;67697;50.750;-3.270;2024-03-08T12:46:27;59;51;
78408;PMS5003;67697;50.750;-3.270;2024-03-08T12:48:53;62;55;
78408;PMS5003;67697;50.750;-3.270;2024-03-08T12:51:21;57;52;
78408;PMS5003;67697;50.750;-3.270;2024-03-08T12:53:45;57;50;
78408;PMS5003;67697;50.750;-3.270;2024-03-08T12:56:10;57;50;
78408;PMS5003;67697;50.750;-3.270;2024-03-08T12:58:36;61;53;
78408;PMS5003;67697;50.750;-3.270;2024-03-08T13:01:01;60;48;
78408;PMS5003;67697;50.750;-3.270;2024-03-08T13:03:31;53;42;
78408;PMS5003;67697;50.750;-3.270;2024-03-08T13:05:52;53;47;
78408;PMS5003;67697;50.750;-3.270;2024-03-08T13:08:17;59;46;
78408;PMS5003;67697;50.750;-3.270;2024-03-08T13:10:42;56;43;
78408;PMS5003;67697;50.750;-3.270;2024-03-08T13:13:08;53;43;
78408;PMS5003;67697;50.750;-3.270;2024-03-08T13:15:33;60;45;
78408;PMS5003;67697;50.750;-3.270;2024-03-08T13:17:59;66;55;
78408;PMS5003;67697;50.750;-3.270;2024-03-08T13:20:24;57;51;
78408;PMS5003;67697;50.750;-3.270;2024-03-08T13:22:50;54;47;
78408;PMS5003;67697;50.750;-3.270;2024-03-08T13:25:15;51;46;
78408;PMS5003;67697;50.750;-3.270;2024-03-08T13:27:41;55;45;
78408;PMS5003;67697;50.750;-3.270;2024-03-08T13:30:07;52;45;
78408;PMS5003;67697;50.750;-3.270;2024-03-08T13:32:32;55;47;
78408;PMS5003;67697;50.750;-3.270;2024-03-08T13:34:57;54;44;
78408;PMS5003;67697;50.750;-3.270;2024-03-08T13:37:22;56;44;
78408;PMS5003;67697;50.750;-3.270;2024-03-08T13:39:50;53;49;
78408;PMS5003;67697;50.750;-3.270;2024-03-08T13:42:13;52;44;
78408;PMS5003;67697;50.750;-3.270;2024-03-08T13:44:39;53;43;
78408;PMS5003;67697;50.750;-3.270;2024-03-08T13:47:04;46;41;
78408;PMS5003;67697;50.750;-3.270;2024-03-08T13:49:29;48;44;
78408;PMS5003;67697;50.750;-3.270;2024-03-08T13:51:54;47;40;
78408;PMS5003;67697;50.750;-3.270;2024-03-08T13:54:19;44;38;
78408;PMS5003;67697;50.750;-3.270;2024-03-08T13:56:45;38;34;
78408;PMS5003;67697;50.750;-3.270;2024-03-08T13:59:09;47;37;
78408;PMS5003;67697;50.750;-3.270;2024-03-08T14:01:35;52;45;
78408;PMS5003;67697;50.750;-3.270;2024-03-08T14:04:01;48;43;
78408;PMS5003;67697;50.750;-3.270;2024-03-08T14:06:25;42;34;
78408;PMS5003;67697;50.750;-3.270;2024-03-08T14:08:55;39;34;
78408;PMS5003;67697;50.750;-3.270;2024-03-08T14:11:16;42;32;
78408;PMS5003;67697;50.750;-3.270;2024-03-08T14:13:42;42;40;
78408;PMS5003;67697;50.750;-3.270;2024-03-08T14:16:07;42;32;
78408;PMS5003;67697;50.750;-3.270;2024-03-08T14:18:33;45;35;
78408;PMS5003;67697;50.750;-3.270;2024-03-08T14:20:58;40;34;
78408;PMS5003;67697;50.750;-3.270;2024-03-08T14:23:24;40;36;
78408;PMS5003;67697;50.750;-3.270;2024-03-08T14:25:50;44;34;
78408;PMS5003;67697;50.750;-3.270;2024-03-08T14:28:15;42;37;
78408;PMS5003;67697;50.750;-3.270;2024-03-08T14:30:40;38;34;
78408;PMS5003;67697;50.750;-3.270;2024-03-08T14:33:05;34;32;
78408;PMS5003;67697;50.750;-3.270;2024-03-08T14:35:31;32;30;
78408;PMS5003;67697;50.750;-3.270;2024-03-08T14:37:57;42;38;
78408;PMS5003;67697;50.750;-3.270;2024-03-08T14:40:22;37;30;
78408;PMS5003;67697;50.750;-3.270;2024-03-08T14:42:47;37;29;
78408;PMS5003;67697;50.750;-3.270;2024-03-08T14:45:12;28;28;
78408;PMS5003;67697;50.750;-3.270;2024-03-08T14:47:38;43;34;
78408;PMS5003;67697;50.750;-3.270;2024-03-08T14:50:04;40;37;
78408;PMS5003;67697;50.750;-3.270;2024-03-08T14:52:29;35;32;
78408;PMS5003;67697;50.750;-3.270;2024-03-08T14:54:59;35;31;
78408;PMS5003;67697;50.750;-3.270;2024-03-08T14:57:19;36;30;
78408;PMS5003;67697;50.750;-3.270;2024-03-08T14:59:44;33;27;
78408;PMS5003;67697;50.750;-3.270;2024-03-08T15:02:10;28;28;
78408;PMS5003;67697;50.750;-3.270;2024-03-08T15:04:35;35;29;
78408;PMS5003;67697;50.750;-3.270;2024-03-08T15:07:00;31;27;
78408;PMS5003;67697;50.750;-3.270;2024-03-08T15:09:25;35;29;
78408;PMS5003;67697;50.750;-3.270;2024-03-08T15:11:51;35;31;
78408;PMS5003;67697;50.750;-3.270;2024-03-08T15:14:16;37;30;
78408;PMS5003;67697;50.750;-3.270;2024-03-08T15:16:41;32;29;
78408;PMS5003;67697;50.750;-3.270;2024-03-08T15:19:07;38;29;
78408;PMS5003;67697;50.750;-3.270;2024-03-08T15:21:33;28;24;
78408;PMS5003;67697;50.750;-3.270;2024-03-08T15:23:58;25;24;
78408;PMS5003;67697;50.750;-3.270;2024-03-08T15:26:23;33;29;
78408;PMS5003;67697;50.750;-3.270;2024-03-08T15:28:48;22;21;
78408;PMS5003;67697;50.750;-3.270;2024-03-08T15:31:15;25;23;
78408;PMS5003;67697;50.750;-3.270;2024-03-08T15:33:40;30;29;
78408;PMS5003;67697;50.750;-3.270;2024-03-08T15:36:05;34;28;
78408;PMS5003;67697;50.750;-3.270;2024-03-08T15:38:30;31;25;
78408;PMS5003;67697;50.750;-3.270;2024-03-08T15:40:56;30;27;
78408;PMS5003;67697;50.750;-3.270;2024-03-08T15:43:21;29;24;
78408;PMS5003;67697;50.750;-3.270;2024-03-08T15:45:47;27;21;
78408;PMS5003;67697;50.750;-3.270;2024-03-08T15:48:13;28;27;
78408;PMS5003;67697;50.750;-3.270;2024-03-08T15:50:38;34;29;